createdAt,value
2023-01-06T00:02:33.360Z,10.22
2023-01-06T00:05:58.523Z,10.25
2023-01-06T00:09:23.780Z,10.32
2023-01-06T00:12:49.114Z,10.34
2023-01-06T00:16:14.294Z,10.36
2023-01-06T00:19:39.482Z,10.33
2023-01-06T00:23:04.723Z,10.3
2023-01-06T00:26:29.944Z,10.26
2023-01-06T00:29:55.292Z,10.29
2023-01-06T00:33:20.414Z,10.34
2023-01-06T00:36:45.653Z,10.38
2023-01-06T00:40:10.890Z,10.4
2023-01-06T00:43:36.125Z,10.4
2023-01-06T00:47:01.470Z,10.42
2023-01-06T00:50:26.583Z,10.45
2023-01-06T00:53:51.850Z,10.42
2023-01-06T00:57:17.080Z,10.43
2023-01-06T01:00:42.360Z,10.44
2023-01-06T01:04:07.764Z,10.49
2023-01-06T01:07:32.865Z,10.52
2023-01-06T01:10:58.086Z,10.54
2023-01-06T01:14:23.351Z,10.53
2023-01-06T01:17:48.593Z,10.44
2023-01-06T01:21:13.850Z,10.4
2023-01-06T01:24:39.079Z,10.32
2023-01-06T01:28:04.307Z,10.31
2023-01-06T01:31:29.621Z,10.25
2023-01-06T01:34:54.796Z,10.25
2023-01-06T01:38:20.163Z,10.22
2023-01-06T01:41:45.267Z,10.24
2023-01-06T01:45:10.503Z,10.24
2023-01-06T01:48:35.739Z,10.28
2023-01-06T01:52:00.992Z,10.31
2023-01-06T01:55:26.368Z,10.36
2023-01-06T01:58:51.495Z,10.38
2023-01-06T02:02:16.895Z,10.43
2023-01-06T02:05:41.951Z,10.44
2023-01-06T02:09:07.204Z,10.45
2023-01-06T02:12:32.553Z,10.46
2023-01-06T02:15:57.709Z,10.48
2023-01-06T02:19:22.893Z,10.51
2023-01-06T02:22:48.153Z,10.55
2023-01-06T02:26:13.368Z,10.55
2023-01-06T02:29:38.730Z,10.57
2023-01-06T02:33:03.860Z,10.57
2023-01-06T02:36:29.102Z,10.51
2023-01-06T02:39:54.340Z,10.49
2023-01-06T02:43:19.580Z,10.46
2023-01-06T02:46:44.999Z,10.44
2023-01-06T02:50:10.051Z,10.45
2023-01-06T02:53:35.285Z,10.46
2023-01-06T02:57:00.515Z,10.45
2023-01-06T03:00:25.748Z,10.46
2023-01-06T03:03:51.135Z,10.46
2023-01-06T03:07:16.294Z,10.48
2023-01-06T03:10:41.528Z,10.48
2023-01-06T03:14:06.746Z,10.48
2023-01-06T03:17:31.987Z,10.49
2023-01-06T03:20:57.355Z,10.49
2023-01-06T03:24:22.441Z,10.51
2023-01-06T03:27:47.672Z,10.49
2023-01-06T03:31:12.965Z,10.49
2023-01-06T03:34:38.162Z,10.47
2023-01-06T03:38:03.517Z,10.47
2023-01-06T03:41:28.661Z,10.5
2023-01-06T03:44:53.907Z,10.55
2023-01-06T03:48:19.152Z,10.56
2023-01-06T03:51:44.366Z,10.53
2023-01-06T03:55:09.736Z,10.53
2023-01-06T03:58:34.847Z,10.53
2023-01-06T04:02:00.119Z,10.56
2023-01-06T04:05:25.374Z,10.61
2023-01-06T04:08:50.599Z,10.63
2023-01-06T04:12:15.876Z,10.62
2023-01-06T04:15:41.098Z,10.65
2023-01-06T04:19:06.360Z,10.64
2023-01-06T04:22:31.589Z,10.63
2023-01-06T04:25:56.814Z,10.65
2023-01-06T04:29:22.161Z,10.66
2023-01-06T04:32:47.296Z,10.66
2023-01-06T04:36:12.555Z,10.69
2023-01-06T04:39:37.803Z,10.71
2023-01-06T04:43:03.051Z,10.69
2023-01-06T04:46:28.407Z,10.7
2023-01-06T04:49:53.590Z,10.69
2023-01-06T04:53:18.842Z,10.71
2023-01-06T04:56:44.072Z,10.68
2023-01-06T05:00:09.362Z,10.64
2023-01-06T05:03:34.797Z,10.66
2023-01-06T05:06:59.953Z,10.69
2023-01-06T05:10:25.209Z,10.72
2023-01-06T05:13:50.464Z,10.77
2023-01-06T05:17:15.744Z,10.83
2023-01-06T05:20:41.122Z,10.87
2023-01-06T05:24:06.274Z,10.92
2023-01-06T05:27:31.677Z,10.93
2023-01-06T05:30:56.921Z,10.92
2023-01-06T05:34:22.163Z,10.92
2023-01-06T05:37:47.550Z,10.92
2023-01-06T05:41:12.684Z,10.96
2023-01-06T05:44:37.963Z,10.97
2023-01-06T05:48:03.220Z,10.97
2023-01-06T05:51:28.502Z,11.01
2023-01-06T05:54:53.888Z,11.07
2023-01-06T05:58:19.026Z,11.1
2023-01-06T06:01:44.345Z,11.13
2023-01-06T06:05:09.593Z,11.21
2023-01-06T06:08:34.862Z,11.24
2023-01-06T06:12:00.248Z,11.28
2023-01-06T06:15:25.382Z,11.27
2023-01-06T06:18:50.651Z,11.28
2023-01-06T06:22:15.916Z,11.28
2023-01-06T06:25:41.214Z,11.28
2023-01-06T06:29:06.612Z,11.27
2023-01-06T06:32:31.753Z,11.29
2023-01-06T06:35:57.014Z,11.3
2023-01-06T06:39:22.271Z,11.35
2023-01-06T06:42:47.488Z,11.45
2023-01-06T06:46:12.855Z,11.54
2023-01-06T06:49:38.074Z,11.6
2023-01-06T06:53:03.308Z,11.64
2023-01-06T06:56:28.595Z,11.67
2023-01-06T06:59:53.866Z,11.7
2023-01-06T07:03:19.231Z,11.66
2023-01-06T07:06:44.369Z,11.62
2023-01-06T07:10:09.598Z,11.57
2023-01-06T07:13:34.949Z,11.56
2023-01-06T07:17:00.225Z,11.51
2023-01-06T07:20:25.605Z,11.5
2023-01-06T07:23:50.720Z,11.46
2023-01-06T07:27:15.964Z,11.39
2023-01-06T07:30:41.208Z,11.32
2023-01-06T07:34:06.469Z,11.28
2023-01-06T07:37:31.837Z,11.3
2023-01-06T07:40:56.985Z,11.29
2023-01-06T07:44:22.249Z,11.34
2023-01-06T07:47:47.483Z,11.36
2023-01-06T07:51:12.726Z,11.37
2023-01-06T07:54:38.109Z,11.38
2023-01-06T07:58:03.222Z,11.39
2023-01-06T08:01:28.608Z,11.37
2023-01-06T08:04:53.654Z,11.37
2023-01-06T08:08:18.851Z,11.38
2023-01-06T08:11:44.184Z,11.41
2023-01-06T08:15:09.274Z,11.41
2023-01-06T08:18:34.490Z,11.43
2023-01-06T08:21:59.688Z,11.44
2023-01-06T08:25:24.926Z,11.47
2023-01-06T08:28:50.239Z,11.48
2023-01-06T08:32:15.334Z,11.51
2023-01-06T08:35:40.536Z,11.55
2023-01-06T08:39:05.742Z,11.55
2023-01-06T08:42:30.953Z,11.53
2023-01-06T08:45:56.335Z,11.51
2023-01-06T08:49:21.438Z,11.5
2023-01-06T08:52:46.626Z,11.49
2023-01-06T08:56:11.835Z,11.47
2023-01-06T08:59:37.038Z,11.49
2023-01-06T09:03:02.380Z,11.53
2023-01-06T09:06:27.488Z,11.55
2023-01-06T09:09:52.694Z,11.56
2023-01-06T09:13:17.933Z,11.6
2023-01-06T09:16:43.143Z,11.64
2023-01-06T09:20:08.537Z,11.71
2023-01-06T09:23:33.622Z,11.73
2023-01-06T09:26:58.833Z,11.78
2023-01-06T09:30:24.051Z,11.77
2023-01-06T09:33:49.285Z,11.73
2023-01-06T09:37:14.626Z,11.66
2023-01-06T09:40:39.755Z,11.62
2023-01-06T09:44:05.004Z,11.56
2023-01-06T09:47:30.219Z,11.54
2023-01-06T09:50:55.451Z,11.51
2023-01-06T09:54:20.940Z,11.5
2023-01-06T09:57:45.905Z,11.5
2023-01-06T10:01:11.121Z,11.51
2023-01-06T10:04:36.318Z,11.56
2023-01-06T10:08:01.539Z,11.56
2023-01-06T10:11:26.876Z,11.56
2023-01-06T10:14:51.964Z,11.61
2023-01-06T10:18:17.224Z,11.63
2023-01-06T10:21:42.454Z,11.68
2023-01-06T10:25:07.650Z,11.68
2023-01-06T10:28:33.004Z,11.71
2023-01-06T10:31:58.107Z,11.71
2023-01-06T10:35:23.448Z,11.67
2023-01-06T10:38:48.696Z,11.61
2023-01-06T10:42:13.940Z,11.62
2023-01-06T10:45:39.270Z,11.61
2023-01-06T10:49:04.381Z,11.66
2023-01-06T10:52:29.629Z,11.71
2023-01-06T10:55:54.851Z,11.79
2023-01-06T10:59:20.090Z,11.84
2023-01-06T11:02:45.470Z,11.89
2023-01-06T11:06:10.520Z,11.92
2023-01-06T11:09:35.729Z,11.91
2023-01-06T11:13:00.967Z,11.89
2023-01-06T11:16:26.252Z,11.8
2023-01-06T11:19:51.481Z,11.69
2023-01-06T11:23:16.584Z,11.62
2023-01-06T11:26:41.794Z,11.55
2023-01-06T11:30:07.023Z,11.5
2023-01-06T11:33:32.257Z,11.48
2023-01-06T11:36:57.605Z,11.43
2023-01-06T11:40:22.721Z,11.38
2023-01-06T11:43:49.262Z,11.42
2023-01-06T11:47:13.165Z,11.45
2023-01-06T11:50:38.439Z,11.44
2023-01-06T11:54:03.828Z,11.45
2023-01-06T11:57:29.084Z,11.46
2023-01-06T12:00:54.351Z,11.45
2023-01-06T12:04:19.607Z,11.42
2023-01-06T12:07:44.906Z,11.41
2023-01-06T12:11:10.330Z,11.38
2023-01-06T12:14:35.508Z,11.35
2023-01-06T12:18:00.732Z,11.29
2023-01-06T12:21:26.835Z,11.22
2023-01-06T12:24:52.160Z,11.2
2023-01-06T12:28:18.137Z,11.22
2023-01-06T12:31:43.405Z,11.25
2023-01-06T12:35:08.653Z,11.24
2023-01-06T12:38:33.908Z,11.28
2023-01-06T12:41:59.203Z,11.3
2023-01-06T12:45:24.590Z,11.28
2023-01-06T12:48:49.815Z,11.25
2023-01-06T12:52:15.401Z,11.24
2023-01-06T12:55:40.669Z,11.24
2023-01-06T12:59:05.960Z,11.26
2023-01-06T13:02:31.347Z,11.3
2023-01-06T13:05:56.492Z,11.35
2023-01-06T13:09:21.764Z,11.38
2023-01-06T13:12:47.020Z,11.46
2023-01-06T13:16:12.327Z,11.48
2023-01-06T13:19:37.732Z,11.48
2023-01-06T13:23:02.919Z,11.47
2023-01-06T13:26:28.228Z,11.48
2023-01-06T13:29:53.508Z,11.51
2023-01-06T13:33:18.758Z,11.52
2023-01-06T13:36:44.167Z,11.54
2023-01-06T13:40:09.340Z,11.54
2023-01-06T13:43:34.617Z,11.52
2023-01-06T13:47:01.837Z,11.47
2023-01-06T13:50:25.186Z,11.43
2023-01-06T13:53:50.589Z,11.42
2023-01-06T13:57:15.737Z,11.4
2023-01-06T14:00:41.046Z,11.37
2023-01-06T14:04:06.308Z,11.36
2023-01-06T14:07:31.596Z,11.3
2023-01-06T14:10:57.037Z,11.24
2023-01-06T14:14:22.202Z,11.22
2023-01-06T14:17:47.957Z,11.16
2023-01-06T14:21:13.342Z,11.2
2023-01-06T14:24:39.183Z,11.2
2023-01-06T14:28:04.545Z,11.17
2023-01-06T15:04:04.035Z,8.92
2023-01-06T15:07:29.160Z,9.82
2023-01-06T15:10:54.565Z,10.04
2023-01-06T15:14:19.844Z,10.28
2023-01-06T15:17:45.147Z,10.43
2023-01-06T15:21:12.183Z,10.54
2023-01-06T15:24:35.730Z,10.64
2023-01-06T15:28:00.988Z,10.73
2023-01-06T15:31:26.349Z,10.84
2023-01-06T15:34:51.587Z,10.92
2023-01-06T15:38:16.963Z,10.95
2023-01-06T15:41:42.167Z,10.97
2023-01-06T15:45:07.879Z,11
2023-01-06T15:48:32.864Z,11
2023-01-06T15:51:58.047Z,11.01
2023-01-06T15:55:23.455Z,11.06
2023-01-06T15:58:48.588Z,11.11
2023-01-06T16:02:13.962Z,11.11
2023-01-06T16:05:39.069Z,11.14
2023-01-06T16:09:04.333Z,11.2
2023-01-06T16:12:29.692Z,11.19
2023-01-06T16:15:54.890Z,11.22
2023-01-06T16:19:20.056Z,11.22
2023-01-06T16:22:45.439Z,11.23
2023-01-06T16:26:10.681Z,11.19
2023-01-06T16:29:36.037Z,11.11
2023-01-06T16:33:01.195Z,11.04
2023-01-06T16:36:26.394Z,10.99
2023-01-06T16:39:51.684Z,10.96
2023-01-06T16:43:16.976Z,10.96
2023-01-06T16:46:42.398Z,10.97
2023-01-06T16:50:07.473Z,10.95
2023-01-06T16:53:34.110Z,10.94
2023-01-06T16:57:10.297Z,10.91
2023-01-06T17:00:35.573Z,10.87
2023-01-06T17:04:00.945Z,10.91
2023-01-06T17:07:26.918Z,10.88
2023-01-06T17:11:00.520Z,10.9
2023-01-06T17:14:25.786Z,10.93
2023-01-06T17:17:50.990Z,10.96
2023-01-06T17:21:16.351Z,11
2023-01-06T17:24:41.486Z,11.03
2023-01-06T17:28:06.736Z,11.03
2023-01-06T17:31:32.051Z,11.06
2023-01-06T17:34:57.223Z,11.06
2023-01-06T17:38:22.804Z,11.01
2023-01-06T17:41:47.714Z,10.99
2023-01-06T17:45:12.955Z,11.02
2023-01-06T17:48:38.251Z,10.97
2023-01-06T17:52:03.459Z,10.97
2023-01-06T17:55:28.828Z,10.97
2023-01-06T17:58:53.982Z,10.95
2023-01-06T18:02:19.200Z,10.95
2023-01-06T18:05:44.450Z,10.95
2023-01-06T18:09:09.671Z,10.94
2023-01-06T18:12:35.050Z,10.91
2023-01-06T18:16:00.298Z,10.92
2023-01-06T18:19:25.401Z,10.9
2023-01-06T18:22:50.667Z,10.85
2023-01-06T18:26:15.883Z,10.82
2023-01-06T18:29:41.251Z,10.8
2023-01-06T18:33:06.376Z,10.82
2023-01-06T18:36:31.612Z,10.82
2023-01-06T18:39:56.881Z,10.81
2023-01-06T18:43:22.119Z,10.84
2023-01-06T18:46:47.461Z,10.86
2023-01-06T18:50:12.597Z,10.9
2023-01-06T18:53:37.893Z,10.9
2023-01-06T18:57:03.158Z,10.93
2023-01-06T19:00:28.394Z,10.97
2023-01-06T19:03:53.905Z,10.96
2023-01-06T19:07:18.897Z,10.9
2023-01-06T19:10:44.126Z,10.84
2023-01-06T19:14:09.377Z,10.85
2023-01-06T19:17:34.623Z,10.88
2023-01-06T19:21:00.028Z,10.93
2023-01-06T19:24:25.115Z,10.98
2023-01-06T19:27:50.361Z,11.02
2023-01-06T19:31:15.667Z,11.04
2023-01-06T19:34:40.847Z,11.04
2023-01-06T19:38:06.248Z,11.03
2023-01-06T19:41:31.362Z,11.05
2023-01-06T19:44:56.660Z,11.09
2023-01-06T19:48:21.865Z,11.08
2023-01-06T19:51:47.122Z,11.08
2023-01-06T19:55:12.486Z,11.07
2023-01-06T19:58:37.605Z,11.04
2023-01-06T20:02:03.044Z,10.95
2023-01-06T20:05:28.090Z,10.9
2023-01-06T20:08:53.374Z,10.89
2023-01-06T20:12:18.718Z,10.92
2023-01-06T20:15:43.863Z,10.97
2023-01-06T20:19:09.105Z,11.01
2023-01-06T20:22:34.351Z,11
2023-01-06T20:25:59.593Z,10.96
2023-01-06T20:29:24.986Z,10.94
2023-01-06T20:32:50.111Z,10.9
2023-01-06T20:36:15.366Z,10.83
2023-01-06T20:39:40.607Z,10.79
2023-01-06T20:43:05.860Z,10.81
2023-01-06T20:46:31.244Z,10.77
2023-01-06T20:49:56.352Z,10.69
2023-01-06T20:53:21.652Z,10.67
2023-01-06T20:56:46.852Z,10.67
2023-01-06T21:00:12.114Z,10.71
2023-01-06T21:03:37.508Z,10.72
2023-01-06T21:07:02.635Z,10.71
2023-01-06T21:10:27.907Z,10.75
2023-01-06T21:13:53.147Z,10.79
2023-01-06T21:17:18.372Z,10.79
2023-01-06T21:20:43.759Z,10.78
2023-01-06T21:24:08.870Z,10.82
2023-01-06T21:27:34.147Z,10.83
2023-01-06T21:30:59.510Z,10.83
2023-01-06T21:34:24.693Z,10.85
2023-01-06T21:37:50.069Z,10.84
2023-01-06T21:41:15.196Z,10.77
2023-01-06T21:44:40.448Z,10.71
2023-01-06T21:48:05.709Z,10.71
2023-01-06T21:51:30.988Z,10.71
2023-01-06T21:54:56.372Z,10.72
2023-01-06T21:58:21.529Z,10.69
2023-01-06T22:01:46.916Z,10.67
2023-01-06T22:05:12.097Z,10.67
2023-01-06T22:08:37.359Z,10.72
2023-01-06T22:12:02.744Z,10.72
2023-01-06T22:15:27.922Z,10.71
2023-01-06T22:18:53.162Z,10.69
2023-01-06T22:22:18.423Z,10.73
2023-01-06T22:25:43.705Z,10.75
2023-01-06T22:29:09.103Z,10.76
2023-01-06T22:32:34.244Z,10.76
2023-01-06T22:35:59.488Z,10.81
2023-01-06T22:39:24.747Z,10.8
2023-01-06T22:42:50.020Z,10.78
2023-01-06T22:46:15.513Z,10.77
2023-01-06T22:49:40.599Z,10.74
2023-01-06T22:53:05.837Z,10.71
2023-01-06T22:56:31.074Z,10.75
2023-01-06T22:59:56.337Z,10.79
2023-01-06T23:03:21.758Z,10.82
2023-01-06T23:06:46.820Z,10.85
2023-01-06T23:10:12.125Z,10.88
2023-01-06T23:13:37.374Z,10.88
2023-01-06T23:17:02.674Z,10.89
2023-01-06T23:20:27.941Z,10.88
2023-01-06T23:23:53.201Z,10.92
2023-01-06T23:27:18.466Z,10.93
2023-01-06T23:30:43.853Z,10.93
2023-01-06T23:34:09.052Z,10.92
2023-01-06T23:37:34.402Z,10.88
2023-01-06T23:40:59.577Z,10.8
2023-01-06T23:44:24.830Z,10.7
2023-01-06T23:47:50.142Z,10.65
2023-01-06T23:51:15.418Z,10.62
2023-01-06T23:54:40.839Z,10.61
2023-01-06T23:58:05.958Z,10.58
